createdAt,value
2022-10-05T00:00:45.155Z,8.90
2022-10-05T00:03:11.967Z,8.90
2022-10-05T00:05:38.510Z,8.77
2022-10-05T00:08:13.092Z,9.20
2022-10-05T00:10:41.366Z,9.30
2022-10-05T00:13:20.598Z,8.77
2022-10-05T00:15:48.522Z,8.23
2022-10-05T00:18:20.151Z,9.53
2022-10-05T00:20:47.825Z,9.13
2022-10-05T00:23:18.901Z,8.40
2022-10-05T00:25:45.783Z,9.80
2022-10-05T00:28:26.961Z,9.77
2022-10-05T00:30:57.768Z,10.23
2022-10-05T00:33:24.517Z,9.00
2022-10-05T00:35:51.089Z,9.17
2022-10-05T00:38:17.817Z,9.40
2022-10-05T00:41:08.522Z,9.60
2022-10-05T00:44:01.900Z,8.77
2022-10-05T00:46:44.594Z,9.30
2022-10-05T00:49:40.536Z,9.60
2022-10-05T00:52:38.129Z,8.87
2022-10-05T00:55:16.917Z,9.67
2022-10-05T00:58:08.988Z,9.90
2022-10-05T01:00:43.970Z,9.37
2022-10-05T01:03:29.606Z,9.40
2022-10-05T01:06:08.192Z,9.73
2022-10-05T01:08:47.382Z,9.20
2022-10-05T01:11:20.810Z,9.27
2022-10-05T01:14:18.675Z,9.90
2022-10-05T01:17:04.614Z,10.03
2022-10-05T01:20:08.599Z,9.30
2022-10-05T01:23:03.096Z,9.23
2022-10-05T01:25:38.745Z,9.50
2022-10-05T01:28:12.098Z,9.07
2022-10-05T01:30:43.652Z,9.40
2022-10-05T01:33:25.918Z,8.53
2022-10-05T01:36:03.420Z,8.70
2022-10-05T01:38:54.584Z,9.00
2022-10-05T01:41:33.496Z,8.60
2022-10-05T01:44:31.450Z,8.57
2022-10-05T01:47:05.427Z,8.07
2022-10-05T01:49:47.135Z,8.20
2022-10-05T01:52:51.219Z,8.50
2022-10-05T01:55:54.165Z,8.37
2022-10-05T01:58:37.094Z,8.63
2022-10-05T02:01:08.299Z,8.17
2022-10-05T02:03:39.621Z,8.27
2022-10-05T02:06:13.207Z,8.53
2022-10-05T02:09:13.773Z,8.70
2022-10-05T02:11:41.075Z,8.43
2022-10-05T02:14:11.723Z,8.23
2022-10-05T02:16:43.318Z,8.30
2022-10-05T02:19:16.142Z,8.53
2022-10-05T02:21:45.121Z,7.57
2022-10-05T02:24:15.798Z,8.83
2022-10-05T02:26:42.563Z,8.23
2022-10-05T02:29:11.627Z,8.17
2022-10-05T02:31:41.254Z,8.37
2022-10-05T02:34:28.427Z,8.33
2022-10-05T02:37:25.191Z,8.73
2022-10-05T02:40:13.368Z,8.93
2022-10-05T02:42:54.293Z,9.43
2022-10-05T02:45:46.206Z,10.80
2022-10-05T02:48:23.891Z,10.00
2022-10-05T02:50:56.155Z,10.90
2022-10-05T02:53:44.153Z,12.37
2022-10-05T02:56:31.847Z,11.50
2022-10-05T02:59:35.688Z,11.47
2022-10-05T03:02:12.448Z,10.80
2022-10-05T03:04:43.765Z,9.97
2022-10-05T03:07:17.793Z,9.40
2022-10-05T03:10:14.941Z,9.10
2022-10-05T03:12:55.603Z,10.20
2022-10-05T03:15:40.232Z,9.97
2022-10-05T03:18:37.446Z,9.87
2022-10-05T03:21:23.570Z,9.87
2022-10-05T03:24:18.320Z,9.70
2022-10-05T03:27:06.960Z,10.30
2022-10-05T03:29:38.356Z,10.47
2022-10-05T03:32:45.667Z,10.53
2022-10-05T03:35:18.554Z,10.13
2022-10-05T03:37:52.568Z,10.63
2022-10-05T03:40:22.260Z,10.57
2022-10-05T03:42:53.380Z,10.37
2022-10-05T03:45:22.681Z,10.53
2022-10-05T03:48:01.313Z,9.73
2022-10-05T03:50:40.537Z,9.30
2022-10-05T03:53:13.559Z,11.33
2022-10-05T03:55:44.048Z,10.70
2022-10-05T03:58:25.400Z,10.87
2022-10-05T04:00:54.185Z,11.37
2022-10-05T04:03:26.165Z,12.67
2022-10-05T04:05:59.309Z,13.43
2022-10-05T04:08:38.432Z,12.77
2022-10-05T04:11:10.313Z,12.07
2022-10-05T04:14:01.527Z,12.07
2022-10-05T04:16:32.295Z,10.97
2022-10-05T04:19:04.693Z,11.60
2022-10-05T04:22:15.709Z,9.73
2022-10-05T04:24:49.595Z,9.57
2022-10-05T04:27:44.344Z,9.70
2022-10-05T04:30:18.981Z,9.30
2022-10-05T04:32:54.222Z,9.27
2022-10-05T04:35:50.981Z,8.63
2022-10-05T04:38:55.253Z,8.50
2022-10-05T04:41:59.174Z,8.73
2022-10-05T04:44:37.568Z,7.77
2022-10-05T04:47:33.221Z,9.00
2022-10-05T04:50:19.068Z,9.13
2022-10-05T04:52:55.731Z,8.80
2022-10-05T04:55:33.894Z,9.03
2022-10-05T04:58:12.750Z,8.90
2022-10-05T05:00:59.341Z,8.70
2022-10-05T05:03:35.065Z,8.23
2022-10-05T05:06:17.425Z,8.43
2022-10-05T05:08:58.551Z,8.30
2022-10-05T05:11:27.303Z,8.67
2022-10-05T05:14:11.418Z,9.13
2022-10-05T05:16:40.626Z,9.67
2022-10-05T05:19:25.595Z,9.33
2022-10-05T05:22:11.181Z,9.00
2022-10-05T05:24:49.342Z,9.70
2022-10-05T05:27:29.780Z,8.43
2022-10-05T05:30:21.185Z,9.00
2022-10-05T05:33:08.504Z,8.90
2022-10-05T05:35:49.188Z,9.33
2022-10-05T05:38:18.359Z,9.37
2022-10-05T05:40:50.645Z,9.53
2022-10-05T05:43:41.952Z,8.90
2022-10-05T05:46:15.273Z,8.87
2022-10-05T05:48:43.578Z,9.20
2022-10-05T05:51:17.712Z,9.20
2022-10-05T05:53:50.907Z,11.27
2022-10-05T05:56:25.805Z,10.23
2022-10-05T05:58:54.964Z,11.50
2022-10-05T06:01:34.322Z,10.87
2022-10-05T06:04:13.265Z,10.17
2022-10-05T06:06:42.658Z,9.17
2022-10-05T06:09:25.017Z,9.43
2022-10-05T06:11:57.068Z,9.57
2022-10-05T06:14:29.793Z,8.10
2022-10-05T06:17:07.637Z,8.53
2022-10-05T06:19:35.059Z,8.40
2022-10-05T06:22:37.385Z,8.13
2022-10-05T06:25:13.112Z,8.90
2022-10-05T06:28:04.974Z,7.83
2022-10-05T06:30:53.884Z,7.83
2022-10-05T06:33:50.610Z,8.97
2022-10-05T06:36:45.935Z,8.87
2022-10-05T06:39:31.326Z,7.57
2022-10-05T06:42:25.957Z,7.30
2022-10-05T06:45:09.619Z,8.20
2022-10-05T06:47:45.182Z,7.50
2022-10-05T06:50:29.464Z,7.70
2022-10-05T06:53:14.147Z,7.70
2022-10-05T06:55:52.279Z,7.13
2022-10-05T06:58:42.885Z,6.80
2022-10-05T07:01:16.013Z,7.13
2022-10-05T07:03:47.407Z,6.97
2022-10-05T07:06:20.143Z,7.03
2022-10-05T07:08:54.704Z,7.20
2022-10-05T07:11:51.310Z,7.53
2022-10-05T07:14:34.383Z,6.87
2022-10-05T07:17:23.972Z,6.80
2022-10-05T07:20:15.277Z,7.50
2022-10-05T07:22:49.813Z,6.77
2022-10-05T07:25:19.955Z,7.03
2022-10-05T07:27:55.212Z,5.70
2022-10-05T07:30:22.114Z,6.07
2022-10-05T07:33:01.648Z,6.20
2022-10-05T07:36:32.601Z,6.03
2022-10-05T07:39:07.642Z,5.50
2022-10-05T07:41:53.025Z,5.73
2022-10-05T07:44:31.134Z,5.70
2022-10-05T07:47:12.330Z,6.43
2022-10-05T07:49:47.933Z,5.53
2022-10-05T07:52:22.688Z,5.30
2022-10-05T07:55:01.356Z,6.10
2022-10-05T07:57:38.404Z,6.17
2022-10-05T08:00:16.013Z,6.00
2022-10-05T08:02:51.762Z,5.80
2022-10-05T08:05:32.189Z,5.47
2022-10-05T08:08:14.315Z,5.90
2022-10-05T08:10:52.195Z,5.70
2022-10-05T08:13:33.569Z,5.50
2022-10-05T08:16:06.280Z,5.60
2022-10-05T08:18:59.943Z,5.07
2022-10-05T08:21:36.447Z,6.23
2022-10-05T08:24:23.162Z,5.37
2022-10-05T08:26:52.456Z,4.47
2022-10-05T08:29:42.611Z,5.13
2022-10-05T08:32:16.301Z,5.47
2022-10-05T08:34:48.285Z,5.17
2022-10-05T08:37:28.659Z,4.40
2022-10-05T08:40:25.318Z,4.70
2022-10-05T08:43:14.256Z,4.87
2022-10-05T08:46:11.721Z,4.37
2022-10-05T08:49:16.768Z,4.33
2022-10-05T08:52:02.005Z,4.30
2022-10-05T08:55:10.191Z,4.53
2022-10-05T08:58:12.403Z,4.13
2022-10-05T09:01:07.643Z,3.87
2022-10-05T09:03:48.448Z,3.90
2022-10-05T09:06:26.692Z,3.90
2022-10-05T09:09:05.383Z,3.70
2022-10-05T09:11:37.206Z,4.03
2022-10-05T09:14:17.800Z,3.63
2022-10-05T09:17:08.674Z,4.23
2022-10-05T09:19:53.993Z,3.50
2022-10-05T09:22:28.413Z,3.00
2022-10-05T09:25:05.626Z,3.30
2022-10-05T09:27:39.237Z,3.60
2022-10-05T09:30:47.880Z,3.63
2022-10-05T09:33:32.945Z,3.93
2022-10-05T09:36:05.654Z,3.80
2022-10-05T09:39:05.832Z,3.63
2022-10-05T09:42:00.151Z,3.00
2022-10-05T09:45:05.446Z,3.77
2022-10-05T09:47:45.452Z,3.47
2022-10-05T09:50:17.824Z,3.40
2022-10-05T09:53:23.419Z,3.33
2022-10-05T09:55:52.707Z,3.30
2022-10-05T09:58:44.712Z,3.70
2022-10-05T10:01:33.051Z,3.47
2022-10-05T10:04:18.924Z,3.37
2022-10-05T10:07:05.140Z,3.60
2022-10-05T10:09:46.860Z,3.80
2022-10-05T10:12:24.473Z,3.23
2022-10-05T10:15:00.588Z,3.90
2022-10-05T10:18:17.722Z,3.60
2022-10-05T10:21:25.535Z,3.47
2022-10-05T10:24:29.430Z,3.37
2022-10-05T10:27:23.384Z,3.07
2022-10-05T10:30:27.655Z,3.80
2022-10-05T10:33:20.614Z,3.30
2022-10-05T10:36:01.593Z,3.20
2022-10-05T10:39:15.491Z,3.53
2022-10-05T10:42:05.340Z,3.47
2022-10-05T10:44:43.912Z,3.30
2022-10-05T10:47:25.899Z,3.30
2022-10-05T10:50:11.903Z,3.23
2022-10-05T10:52:48.907Z,3.30
2022-10-05T10:55:35.459Z,3.43
2022-10-05T10:58:25.535Z,2.97
2022-10-05T11:00:58.172Z,3.23
2022-10-05T11:03:44.667Z,2.87
2022-10-05T11:06:24.619Z,3.20
2022-10-05T11:08:53.742Z,3.30
2022-10-05T11:11:27.280Z,3.27
2022-10-05T11:14:03.819Z,3.27
2022-10-05T11:16:44.367Z,3.47
2022-10-05T11:20:02.997Z,3.10
2022-10-05T11:22:30.365Z,2.80
2022-10-05T11:25:09.726Z,2.90
2022-10-05T11:28:11.147Z,2.80
2022-10-05T11:30:51.862Z,3.20
2022-10-05T11:33:48.920Z,2.80
2022-10-05T11:36:30.863Z,3.33
2022-10-05T11:39:23.757Z,2.43
2022-10-05T11:42:08.922Z,3.07
2022-10-05T11:45:13.723Z,2.70
2022-10-05T11:48:07.581Z,3.43
2022-10-05T11:50:41.775Z,2.90
2022-10-05T11:53:14.177Z,2.90
2022-10-05T11:56:11.426Z,2.93
2022-10-05T11:58:47.970Z,3.00
2022-10-05T12:01:36.722Z,3.27
2022-10-05T12:04:18.088Z,3.67
2022-10-05T12:07:09.489Z,3.17
2022-10-05T12:10:14.344Z,3.50
2022-10-05T12:13:22.101Z,3.77
2022-10-05T12:15:59.122Z,3.43
2022-10-05T12:18:31.517Z,3.80
2022-10-05T12:21:27.795Z,3.70
2022-10-05T12:24:05.697Z,3.50
2022-10-05T12:26:44.763Z,3.80
2022-10-05T12:29:36.278Z,4.20
2022-10-05T12:32:12.993Z,3.90
2022-10-05T12:34:49.017Z,4.00
2022-10-05T12:37:37.945Z,4.70
2022-10-05T12:40:24.212Z,3.83
2022-10-05T12:43:05.928Z,3.77
2022-10-05T12:45:35.463Z,3.80
2022-10-05T12:48:15.873Z,4.57
2022-10-05T12:50:43.367Z,4.00
2022-10-05T12:53:28.872Z,4.30
2022-10-05T12:56:07.873Z,4.43
2022-10-05T12:58:59.738Z,4.47
2022-10-05T13:01:40.550Z,4.10
2022-10-05T13:04:24.288Z,4.27
2022-10-05T13:07:29.268Z,5.30
2022-10-05T13:10:14.411Z,5.53
2022-10-05T13:12:41.092Z,4.60
2022-10-05T13:15:23.178Z,4.70
2022-10-05T13:18:01.288Z,4.20
2022-10-05T13:20:44.682Z,4.77
2022-10-05T13:23:27.242Z,4.40
2022-10-05T13:26:01.929Z,4.40
2022-10-05T13:28:39.493Z,4.33
2022-10-05T13:31:16.248Z,3.97
2022-10-05T13:34:07.378Z,4.10
2022-10-05T13:36:44.322Z,4.03
2022-10-05T13:39:39.948Z,4.77
2022-10-05T13:42:16.981Z,4.40
2022-10-05T13:44:50.011Z,4.43
2022-10-05T13:47:38.905Z,4.33
2022-10-05T13:50:17.193Z,5.07
2022-10-05T13:52:55.725Z,4.10
2022-10-05T13:55:38.062Z,4.27
2022-10-05T13:58:19.435Z,3.80
2022-10-05T14:00:53.751Z,4.30
2022-10-05T14:03:35.101Z,3.90
2022-10-05T14:06:14.863Z,3.97
2022-10-05T14:09:01.570Z,4.27
2022-10-05T14:11:36.041Z,5.10
2022-10-05T14:14:23.655Z,5.17
2022-10-05T14:16:54.086Z,4.57
2022-10-05T14:19:48.283Z,4.27
2022-10-05T14:22:24.808Z,4.50
2022-10-05T14:24:54.723Z,3.93
2022-10-05T14:27:23.013Z,4.27
2022-10-05T14:30:15.317Z,4.20
2022-10-05T14:32:59.118Z,4.53
2022-10-05T14:35:29.952Z,4.23
2022-10-05T14:38:04.016Z,4.50
2022-10-05T14:40:33.290Z,4.23
2022-10-05T14:43:32.221Z,4.37
2022-10-05T14:46:01.484Z,4.30
2022-10-05T14:48:37.714Z,3.60
2022-10-05T14:51:10.253Z,4.07
2022-10-05T14:53:48.202Z,4.23
2022-10-05T14:56:26.776Z,4.03
2022-10-05T14:59:07.641Z,4.87
2022-10-05T15:01:36.668Z,4.80
2022-10-05T15:04:15.089Z,5.10
2022-10-05T15:06:47.231Z,4.50
2022-10-05T15:09:37.528Z,5.13
2022-10-05T15:12:05.304Z,5.07
2022-10-05T15:14:34.897Z,4.30
2022-10-05T15:17:05.360Z,4.30
2022-10-05T15:19:37.983Z,3.97
2022-10-05T15:22:18.652Z,4.20
2022-10-05T15:24:57.856Z,4.30
2022-10-05T15:27:53.911Z,4.27
2022-10-05T15:30:22.451Z,4.43
2022-10-05T15:32:57.933Z,4.70
2022-10-05T15:35:36.811Z,4.07
2022-10-05T15:38:21.377Z,4.53
2022-10-05T15:40:59.051Z,4.97
2022-10-05T15:43:36.088Z,3.73
2022-10-05T15:46:34.439Z,3.93
2022-10-05T15:49:09.749Z,4.23
2022-10-05T15:51:47.960Z,4.40
2022-10-05T15:54:46.268Z,3.83
2022-10-05T15:57:21.600Z,4.07
2022-10-05T15:59:57.233Z,5.47
2022-10-05T16:02:29.952Z,3.90
2022-10-05T16:05:11.943Z,3.97
2022-10-05T16:08:06.516Z,3.93
2022-10-05T16:10:37.495Z,4.87
2022-10-05T16:13:22.714Z,3.80
2022-10-05T16:16:00.293Z,4.47
2022-10-05T16:18:33.235Z,4.60
2022-10-05T16:21:22.146Z,4.37
2022-10-05T16:24:15.949Z,5.40
2022-10-05T16:27:10.440Z,5.13
2022-10-05T16:29:53.263Z,5.47
2022-10-05T16:32:22.629Z,5.70
2022-10-05T16:35:08.650Z,5.67
2022-10-05T16:37:47.480Z,5.57
2022-10-05T16:40:19.201Z,4.80
2022-10-05T16:42:57.542Z,5.20
2022-10-05T16:45:58.672Z,5.50
2022-10-05T16:48:29.588Z,4.33
2022-10-05T16:51:19.753Z,4.97
2022-10-05T16:53:59.840Z,4.70
2022-10-05T16:56:30.970Z,4.70
2022-10-05T16:59:30.886Z,4.50
2022-10-05T17:02:09.179Z,4.83
2022-10-05T17:05:38.760Z,4.73
2022-10-05T17:08:17.336Z,4.87
2022-10-05T17:11:17.828Z,5.20
2022-10-05T17:14:01.861Z,5.23
2022-10-05T17:16:53.979Z,4.93
2022-10-05T17:19:26.620Z,4.83
2022-10-05T17:22:23.983Z,5.30
2022-10-05T17:25:24.445Z,4.60
2022-10-05T17:28:18.860Z,4.67
2022-10-05T17:30:54.186Z,5.10
2022-10-05T17:33:29.125Z,4.60
2022-10-05T17:36:12.468Z,5.07
2022-10-05T17:38:47.880Z,4.70
2022-10-05T17:41:21.717Z,5.27
2022-10-05T17:44:07.333Z,5.37
2022-10-05T17:46:38.889Z,5.53
2022-10-05T17:49:22.787Z,5.43
2022-10-05T17:52:08.057Z,5.30
2022-10-05T17:55:13.988Z,5.30
2022-10-05T17:57:42.066Z,5.30
2022-10-05T18:00:31.882Z,5.37
2022-10-05T18:02:58.634Z,5.47
2022-10-05T18:05:27.920Z,4.97
2022-10-05T18:08:13.069Z,5.73
2022-10-05T18:11:06.809Z,5.67
2022-10-05T18:13:45.698Z,5.10
2022-10-05T18:16:13.053Z,5.40
2022-10-05T18:18:43.111Z,5.67
2022-10-05T18:21:15.374Z,5.67
2022-10-05T18:24:14.110Z,5.03
2022-10-05T18:26:53.725Z,5.40
2022-10-05T18:29:54.518Z,4.80
2022-10-05T18:32:29.310Z,5.53
2022-10-05T18:35:11.325Z,5.40
2022-10-05T18:37:49.579Z,5.00
2022-10-05T18:40:26.910Z,5.33
2022-10-05T18:43:13.746Z,5.70
2022-10-05T18:45:55.814Z,5.40
2022-10-05T18:48:31.340Z,5.43
2022-10-05T18:51:22.125Z,5.00
2022-10-05T18:54:19.055Z,6.00
2022-10-05T18:56:53.012Z,5.00
2022-10-05T18:59:36.855Z,5.40
2022-10-05T19:02:11.230Z,6.20
2022-10-05T19:04:48.168Z,5.00
2022-10-05T19:07:41.503Z,5.53
2022-10-05T19:10:37.749Z,5.33
2022-10-05T19:13:34.892Z,4.97
2022-10-05T19:16:30.157Z,4.90
2022-10-05T19:19:33.477Z,5.00
2022-10-05T19:22:40.347Z,5.33
2022-10-05T19:25:28.382Z,4.60
2022-10-05T19:28:05.860Z,4.90
2022-10-05T19:31:04.701Z,5.33
2022-10-05T19:33:33.762Z,5.20
2022-10-05T19:36:16.361Z,5.13
2022-10-05T19:38:57.717Z,6.23
2022-10-05T19:42:01.808Z,5.20
2022-10-05T19:44:53.237Z,5.00
2022-10-05T19:47:37.476Z,5.40
2022-10-05T19:50:25.265Z,4.77
2022-10-05T19:53:11.531Z,5.17
2022-10-05T19:55:43.822Z,5.23
2022-10-05T19:58:22.409Z,4.80
2022-10-05T20:00:55.666Z,5.00
2022-10-05T20:03:29.182Z,5.00
2022-10-05T20:06:01.226Z,4.80
2022-10-05T20:08:36.481Z,4.77
2022-10-05T20:11:16.617Z,4.63
2022-10-05T20:13:45.920Z,4.87
2022-10-05T20:16:33.916Z,5.67
2022-10-05T20:19:38.359Z,4.83
2022-10-05T20:22:29.111Z,5.57
2022-10-05T20:24:57.806Z,4.93
2022-10-05T20:27:39.467Z,5.57
2022-10-05T20:30:07.206Z,5.20
2022-10-05T20:32:33.904Z,6.20
2022-10-05T20:35:00.389Z,5.20
2022-10-05T20:37:26.952Z,5.40
2022-10-05T20:39:53.399Z,5.47
2022-10-05T20:42:20.931Z,5.23
2022-10-05T20:44:50.778Z,5.40
2022-10-05T20:47:19.508Z,5.23
2022-10-05T20:49:45.987Z,5.60
2022-10-05T20:52:15.019Z,5.10
2022-10-05T20:54:42.084Z,5.00
2022-10-05T20:57:09.519Z,5.33
2022-10-05T20:59:36.667Z,5.80
2022-10-05T21:02:04.852Z,4.97
2022-10-05T21:04:40.799Z,5.40
2022-10-05T21:07:08.286Z,5.40
2022-10-05T21:09:38.139Z,5.57
2022-10-05T21:12:05.317Z,5.73
2022-10-05T21:14:34.218Z,6.27
2022-10-05T21:17:01.851Z,5.33
2022-10-05T21:19:29.400Z,5.10
2022-10-05T21:21:58.374Z,5.47
2022-10-05T21:24:25.407Z,5.47
2022-10-05T21:26:51.841Z,5.67
2022-10-05T21:29:18.359Z,5.97
2022-10-05T21:31:44.855Z,6.23
2022-10-05T21:34:11.417Z,5.63
2022-10-05T21:36:37.908Z,6.17
2022-10-05T21:39:05.102Z,6.43
2022-10-05T21:41:31.587Z,5.93
2022-10-05T21:43:58.414Z,6.53
2022-10-05T21:46:28.071Z,5.37
2022-10-05T21:48:55.143Z,5.27
2022-10-05T21:51:24.113Z,5.80
2022-10-05T21:53:54.557Z,6.07
2022-10-05T21:56:23.594Z,5.90
2022-10-05T21:58:50.479Z,5.83
2022-10-05T22:01:22.462Z,6.00
2022-10-05T22:03:49.539Z,6.07
2022-10-05T22:06:16.120Z,5.70
2022-10-05T22:08:42.617Z,6.20
2022-10-05T22:11:12.161Z,6.20
2022-10-05T22:13:49.732Z,6.53
2022-10-05T22:16:18.252Z,7.07
2022-10-05T22:18:44.831Z,6.60
2022-10-05T22:21:12.401Z,6.03
2022-10-05T22:23:40.427Z,5.90
2022-10-05T22:26:08.741Z,5.87
2022-10-05T22:28:35.691Z,6.17
2022-10-05T22:31:04.902Z,6.57
2022-10-05T22:33:31.372Z,5.93
2022-10-05T22:35:59.247Z,6.43
2022-10-05T22:38:26.449Z,6.23
2022-10-05T22:40:53.144Z,6.67
2022-10-05T22:43:19.580Z,6.50
2022-10-05T22:45:46.135Z,6.70
2022-10-05T22:48:12.807Z,6.40
2022-10-05T22:50:39.358Z,6.80
2022-10-05T22:53:06.029Z,6.50
2022-10-05T22:55:32.431Z,6.80
2022-10-05T22:57:58.848Z,6.70
2022-10-05T23:00:40.339Z,6.60
2022-10-05T23:03:12.772Z,6.47
2022-10-05T23:05:39.173Z,6.47
2022-10-05T23:08:05.589Z,6.30
2022-10-05T23:10:32.328Z,6.53
2022-10-05T23:13:01.053Z,6.43
2022-10-05T23:15:27.799Z,6.93
2022-10-05T23:17:56.210Z,6.70
2022-10-05T23:20:24.512Z,6.67
2022-10-05T23:22:51.066Z,6.57
2022-10-05T23:25:17.959Z,6.33
2022-10-05T23:27:44.400Z,6.60
2022-10-05T23:30:12.123Z,6.43
2022-10-05T23:32:40.539Z,7.43
2022-10-05T23:35:08.230Z,6.30
2022-10-05T23:37:42.432Z,6.67
2022-10-05T23:40:12.180Z,6.77
2022-10-05T23:42:41.550Z,6.10
2022-10-05T23:45:10.000Z,5.87
2022-10-05T23:47:37.133Z,5.90
2022-10-05T23:50:06.879Z,6.43
2022-10-05T23:52:34.141Z,6.53
2022-10-05T23:55:00.890Z,6.47
2022-10-05T23:57:27.306Z,6.73
2022-10-05T23:59:56.196Z,6.23
